createdAt,value
2022-10-12T00:00:49.806Z,102266.53
2022-10-12T00:08:25.024Z,102260.91
2022-10-12T00:15:58.838Z,102274.84
2022-10-12T00:23:35.338Z,102267.50
2022-10-12T00:31:10.636Z,102271.75
2022-10-12T00:38:45.929Z,102267.75
2022-10-12T00:46:23.836Z,102268.25
2022-10-12T00:54:03.546Z,102273.13
2022-10-12T01:01:38.049Z,102282.38
2022-10-12T01:09:13.715Z,102273.88
2022-10-12T01:16:55.833Z,102279.19
2022-10-12T01:24:53.078Z,102288.91
2022-10-12T01:32:33.071Z,102286.69
2022-10-12T01:40:13.813Z,102288.28
2022-10-12T01:47:52.666Z,102293.22
2022-10-12T01:55:39.678Z,102288.75
2022-10-12T02:03:21.020Z,102284.72
2022-10-12T02:10:58.808Z,102277.50
2022-10-12T02:18:36.388Z,102278.03
2022-10-12T02:26:10.727Z,102271.56
2022-10-12T02:33:51.418Z,102272.94
2022-10-12T02:41:31.074Z,102263.78
2022-10-12T02:49:07.203Z,102255.59
2022-10-12T02:56:44.547Z,102261.50
2022-10-12T03:04:20.056Z,102255.75
2022-10-12T03:11:53.702Z,102260.78
2022-10-12T03:19:28.708Z,102254.22
2022-10-12T03:27:02.379Z,102255.03
2022-10-12T03:34:37.593Z,102249.53
2022-10-12T03:42:11.615Z,102242.16
2022-10-12T03:49:46.939Z,102239.22
2022-10-12T03:57:20.800Z,102250.38
2022-10-12T04:04:55.790Z,102254.03
2022-10-12T04:12:29.460Z,102251.28
2022-10-12T04:20:05.263Z,102259.84
2022-10-12T04:27:39.306Z,102250.66
2022-10-12T04:35:14.655Z,102253.00
2022-10-12T04:42:48.277Z,102252.91
2022-10-12T04:50:26.319Z,102261.47
2022-10-12T04:58:02.650Z,102263.13
2022-10-12T05:05:37.645Z,102262.56
2022-10-12T05:13:11.435Z,102260.66
2022-10-12T05:20:46.528Z,102274.06
2022-10-12T05:28:20.430Z,102257.44
2022-10-12T05:35:56.704Z,102269.56
2022-10-12T05:43:30.436Z,102268.78
2022-10-12T05:51:05.816Z,102271.50
2022-10-12T05:58:39.432Z,102276.72
2022-10-12T06:06:14.391Z,102276.06
2022-10-12T06:13:47.996Z,102278.19
2022-10-12T06:21:38.467Z,102286.41
2022-10-12T06:29:12.264Z,102297.56
2022-10-12T06:36:47.500Z,102288.56
2022-10-12T06:44:22.452Z,102289.19
2022-10-12T06:51:57.874Z,102290.00
2022-10-12T06:59:31.502Z,102294.69
2022-10-12T07:07:06.640Z,102298.25
2022-10-12T07:14:40.225Z,102299.38
2022-10-12T07:22:15.241Z,102293.50
2022-10-12T07:29:49.038Z,102301.38
2022-10-12T07:37:24.055Z,102289.59
2022-10-12T07:44:57.699Z,102290.34
2022-10-12T07:52:33.907Z,102287.06
2022-10-12T08:00:09.651Z,102289.06
2022-10-12T08:07:44.766Z,102276.59
2022-10-12T08:15:18.745Z,102284.34
2022-10-12T08:22:55.014Z,102269.97
2022-10-12T08:30:29.060Z,102269.41
2022-10-12T08:38:04.391Z,102266.00
2022-10-12T08:45:49.634Z,102269.44
2022-10-12T08:53:29.794Z,102276.25
2022-10-12T09:01:17.067Z,102272.63
2022-10-12T09:09:03.788Z,102265.41
2022-10-12T09:16:43.257Z,102257.13
2022-10-12T09:24:20.971Z,102248.59
2022-10-12T09:32:23.223Z,102256.78
2022-10-12T09:39:59.075Z,102252.72
2022-10-12T09:47:34.244Z,102243.81
2022-10-12T09:55:28.417Z,102246.81
2022-10-12T10:03:03.645Z,102241.50
2022-10-12T10:10:38.830Z,102232.53
2022-10-12T10:18:26.722Z,102230.06
2022-10-12T10:26:08.085Z,102220.22
2022-10-12T10:33:42.467Z,102213.25
2022-10-12T10:41:19.840Z,102223.53
2022-10-12T10:48:58.910Z,102221.88
2022-10-12T10:56:33.972Z,102211.13
2022-10-12T11:04:10.603Z,102207.00
2022-10-12T11:11:48.785Z,102204.41
2022-10-12T11:19:31.444Z,102193.91
2022-10-12T11:27:13.658Z,102173.44
2022-10-12T11:34:52.471Z,102175.00
2022-10-12T11:42:32.184Z,102162.38
2022-10-12T11:50:14.676Z,102161.25
2022-10-12T11:57:51.433Z,102153.81
2022-10-12T12:05:25.098Z,102146.56
2022-10-12T12:13:22.972Z,102136.75
2022-10-12T12:21:05.668Z,102127.28
2022-10-12T12:28:43.488Z,102126.44
2022-10-12T12:36:29.929Z,102115.31
2022-10-12T12:44:06.076Z,102118.91
